EST,Max TemperatureF,Mean TemperatureF,Min TemperatureF,Max Dew PointF,MeanDew PointF,Min DewpointF,Max Humidity, Mean Humidity, Min Humidity, Max Sea Level PressureIn, Mean Sea Level PressureIn, Min Sea Level PressureIn, Max VisibilityMiles, Mean VisibilityMiles, Min VisibilityMiles, Max Wind SpeedMPH, Mean Wind SpeedMPH, Max Gust SpeedMPH,PrecipitationIn, CloudCover, Events, WindDirDegrees
2013-2-1,40,30,20,29,8,0,85,59,32,30.41,30.16,29.81,10,9,2,30,16,41,T,3,Snow,289
2013-2-2,36,26,16,27,16,4,85,60,35,30.39,30.20,30.03,10,8,2,12,2,14,0.03,5,Snow,196
2013-2-3,41,36,30,27,21,15,85,66,47,30.03,29.94,29.85,10,10,10,31,13,44,T,7,,280
2013-2-4,39,32,25,21,16,10,63,52,40,30.14,30.04,29.95,10,10,10,30,8,44,0.00,3,,260
2013-2-5,53,42,30,33,29,21,69,57,44,29.96,29.93,29.89,10,10,10,22,8,29,0.00,5,,249
2013-2-6,55,45,34,33,25,22,67,47,26,30.32,30.15,29.95,10,10,10,23,6,32,0.00,2,,297
2013-2-7,40,36,31,31,28,24,89,74,59,30.40,30.27,30.13,10,7,0,9,3,10,0.27,7,Fog-Rain-Snow,145
2013-2-8,51,42,33,37,30,22,96,73,50,30.12,29.99,29.84,10,7,1,31,9,43,0.20,7,Snow,325
2013-2-9,50,40,30,20,13,10,52,36,20,30.38,30.26,30.09,10,10,10,29,9,39,0.00,0,,304
2013-2-10,49,36,23,32,19,15,74,53,31,30.49,30.37,30.22,10,10,10,15,5,20,0.03,2,Rain,127
2013-2-11,63,51,38,46,37,18,92,62,32,30.19,30.00,29.87,10,8,1,29,10,39,0.02,5,Rain,187
2013-2-12,60,52,43,22,19,13,43,31,18,30.06,30.00,29.95,10,10,10,31,13,43,0.00,0,,288
2013-2-13,47,44,40,42,35,23,96,67,37,29.91,29.75,29.63,10,7,2,22,5,29,0.15,8,Rain,141
2013-2-14,54,43,31,28,24,18,64,44,24,30.05,29.98,29.86,10,10,10,21,5,26,0.00,1,,281
2013-2-15,60,45,30,37,29,23,76,51,25,30.09,30.02,29.91,10,10,10,21,6,29,0.02,3,Rain,257
2013-2-16,39,33,27,26,18,10,64,51,38,30.00,29.95,29.88,10,10,10,20,9,26,0.00,5,,316
2013-2-17,32,26,19,19,5,-2,59,44,28,30.26,30.10,29.93,10,9,0,30,16,39,T,3,Snow,305
2013-2-18,54,38,21,22,12,3,59,41,22,30.38,30.28,30.15,10,10,10,17,6,21,0.00,0,,144
2013-2-19,55,46,36,38,26,11,79,52,25,30.14,29.97,29.78,10,10,7,28,12,40,0.04,5,Rain,258
2013-2-20,45,38,30,13,9,7,39,31,23,30.18,30.07,29.97,10,10,10,28,16,37,0.00,0,,300
2013-2-21,53,39,25,16,11,9,46,33,19,30.29,30.20,30.13,10,10,10,20,8,23,0.00,0,,305
2013-2-22,40,36,31,29,24,16,78,58,37,30.34,30.27,30.17,10,10,3,17,7,20,0.05,8,Rain-Snow,139
2013-2-23,54,44,34,40,33,28,82,71,59,30.17,29.99,29.83,10,10,6,7,1,12,T,6,Rain,258
2013-2-24,56,47,38,39,25,17,83,53,22,30.09,29.94,29.81,10,10,10,25,12,32,0.00,0,,312
2013-2-25,42,36,30,21,20,17,61,50,39,30.23,30.17,30.10,10,10,10,12,5,14,0.00,0,,82
2013-2-26,41,37,32,39,31,18,93,72,51,30.19,29.86,29.63,10,5,1,14,2,24,1.27,8,Rain,46
2013-2-27,51,46,40,39,33,29,93,70,46,29.77,29.70,29.59,10,10,10,18,8,26,0.00,5,,269
2013-2-28,43,40,36,28,24,21,65,55,45,29.85,29.77,29.69,10,10,10,23,11,32,T,7,,275